Time;durP1;ratioP1;P1;durP2;ratioP2;P2;SDS_P1;SDS_P2;PMS_P1;PMS_P2;Temp;Humidity;BMP_temperature;BMP_pressure;BME280_temperature;BME280_humidity;BME280_pressure;Samples;Min_cycle;Max_cycle;Signal;HPM_P1;HPM_P2
2021/01/12 00:00:19;;;;;;;2.00;1.00;;;8.60;80.50;;;;;;5094878;28;20113;-53
2021/01/12 00:02:45;;;;;;;1.92;1.10;;;8.60;80.50;;;;;;5094610;28;20430;-53
2021/01/12 00:05:12;;;;;;;1.33;0.93;;;8.60;80.50;;;;;;5094335;28;20083;-54
2021/01/12 00:07:38;;;;;;;1.80;1.10;;;8.60;80.50;;;;;;5094383;28;20135;-49
2021/01/12 00:10:07;;;;;;;2.70;0.80;;;8.60;80.50;;;;;;5094333;28;20123;-53
2021/01/12 00:12:34;;;;;;;1.70;1.35;;;8.60;80.50;;;;;;5094467;28;20044;-49
2021/01/12 00:14:59;;;;;;;1.58;1.08;;;8.60;80.50;;;;;;5094391;28;20135;-53
2021/01/12 00:17:25;;;;;;;2.67;0.90;;;8.60;80.50;;;;;;5094277;28;20078;-47
2021/01/12 00:19:51;;;;;;;1.45;1.20;;;8.60;80.50;;;;;;5094738;28;20080;-53
2021/01/12 00:22:17;;;;;;;2.20;1.00;;;8.60;80.50;;;;;;5094187;28;20078;-54
2021/01/12 00:24:44;;;;;;;2.78;1.00;;;8.60;80.50;;;;;;5093710;28;20087;-54
2021/01/12 00:27:11;;;;;;;1.75;1.10;;;8.60;80.50;;;;;;5094125;28;20076;-50
2021/01/12 00:29:37;;;;;;;1.35;1.00;;;8.60;80.50;;;;;;5094151;28;20052;-50
2021/01/12 00:32:03;;;;;;;1.10;1.00;;;8.60;80.50;;;;;;5094087;28;20082;-54
2021/01/12 00:34:29;;;;;;;2.17;1.30;;;8.60;80.50;;;;;;5094228;28;20510;-52
2021/01/12 00:36:55;;;;;;;1.08;0.98;;;8.60;80.50;;;;;;5093637;28;20044;-54
2021/01/12 00:39:22;;;;;;;1.73;1.27;;;8.70;80.60;;;;;;5093641;28;20044;-53
2021/01/12 00:41:53;;;;;;;1.70;1.00;;;8.60;80.50;;;;;;5094298;28;20130;-53
2021/01/12 00:44:19;;;;;;;1.27;1.10;;;8.60;80.50;;;;;;5093398;28;20074;-53
2021/01/12 00:46:46;;;;;;;1.98;1.25;;;8.60;80.50;;;;;;5093951;28;20488;-52
2021/01/12 00:49:13;;;;;;;1.48;1.17;;;8.60;80.50;;;;;;5094207;28;20055;-52
2021/01/12 00:51:40;;;;;;;1.10;0.90;;;8.60;80.50;;;;;;5093842;28;20052;-54
2021/01/12 00:54:10;;;;;;;1.00;0.90;;;8.60;80.50;;;;;;5093766;28;20446;-53
2021/01/12 00:56:37;;;;;;;3.88;1.27;;;8.60;80.60;;;;;;5093047;28;20540;-53
2021/01/12 00:59:03;;;;;;;1.75;0.98;;;8.60;80.50;;;;;;5093222;28;20545;-53
2021/01/12 01:01:29;;;;;;;1.42;1.10;;;8.60;80.60;;;;;;5094054;28;20082;-52
2021/01/12 01:03:55;;;;;;;1.00;0.82;;;8.70;80.60;;;;;;5093509;28;20055;-54
2021/01/12 01:06:21;;;;;;;1.63;1.30;;;8.70;80.60;;;;;;5093805;28;20059;-49
2021/01/12 01:08:47;;;;;;;1.42;1.25;;;8.60;80.50;;;;;;5093355;28;20044;-54
2021/01/12 01:11:13;;;;;;;1.83;1.25;;;8.60;80.60;;;;;;5092890;28;20079;-54
2021/01/12 01:13:39;;;;;;;0.90;0.85;;;8.70;80.60;;;;;;5092802;28;20066;-54
2021/01/12 01:16:05;;;;;;;1.92;1.30;;;8.70;80.60;;;;;;5093597;28;20048;-52
2021/01/12 01:18:31;;;;;;;2.75;1.00;;;8.70;80.60;;;;;;5093082;28;20046;-52
2021/01/12 01:20:56;;;;;;;1.05;0.80;;;8.70;80.60;;;;;;5093615;28;20044;-53
2021/01/12 01:23:22;;;;;;;2.60;1.20;;;8.70;80.60;;;;;;5093553;28;20158;-54
2021/01/12 01:25:49;;;;;;;1.17;1.02;;;8.70;81.20;;;;;;5093171;28;20377;-54
2021/01/12 01:28:15;;;;;;;3.10;1.15;;;8.70;80.60;;;;;;5092764;28;20048;-52
2021/01/12 01:30:41;;;;;;;1.40;1.13;;;8.70;80.60;;;;;;5092724;28;20046;-53
2021/01/12 01:33:06;;;;;;;2.33;1.15;;;8.70;80.60;;;;;;5092779;28;20127;-50
2021/01/12 01:35:32;;;;;;;1.27;0.95;;;8.70;80.70;;;;;;5093209;28;20078;-53
2021/01/12 01:37:58;;;;;;;1.90;1.23;;;8.70;80.60;;;;;;5093048;28;20051;-55
2021/01/12 01:40:25;;;;;;;1.65;1.10;;;8.70;80.60;;;;;;5092420;28;20142;-52
2021/01/12 01:42:51;;;;;;;1.73;1.08;;;8.70;80.60;;;;;;5072756;28;20049;-51
2021/01/12 01:45:17;;;;;;;1.23;0.98;;;8.70;80.60;;;;;;5072680;28;20063;-49
2021/01/12 01:47:45;;;;;;;1.08;0.98;;;8.70;80.60;;;;;;5092422;28;20074;-53
2021/01/12 01:50:16;;;;;;;2.63;1.33;;;8.70;80.60;;;;;;5093105;28;20047;-51
2021/01/12 01:52:49;;;;;;;1.13;0.88;;;8.70;80.60;;;;;;5093334;28;20399;-53
2021/01/12 01:55:15;;;;;;;1.00;1.00;;;8.70;80.60;;;;;;5093198;28;20176;-55
2021/01/12 01:57:41;;;;;;;1.25;1.00;;;8.70;80.60;;;;;;5092596;28;20130;-52
2021/01/12 02:00:08;;;;;;;1.77;1.02;;;8.70;80.60;;;;;;5092513;28;20131;-55
2021/01/12 02:03:08;;;;;;;1.63;1.15;;;8.70;80.60;;;;;;5092883;28;20408;-55
2021/01/12 02:05:38;;;;;;;3.20;1.10;;;8.70;80.60;;;;;;5092984;28;20123;-51
2021/01/12 02:08:11;;;;;;;1.52;1.42;;;8.70;80.60;;;;;;5094734;28;20556;-54
2021/01/12 02:10:45;;;;;;;1.10;0.90;;;8.70;80.60;;;;;;5096697;28;20108;-54
2021/01/12 02:13:14;;;;;;;2.60;1.15;;;8.70;80.60;;;;;;5096746;28;20448;-54
2021/01/12 02:15:41;;;;;;;3.10;1.50;;;8.70;80.60;;;;;;5096535;28;20048;-53
2021/01/12 02:18:08;;;;;;;2.00;1.27;;;8.70;80.60;;;;;;5096738;28;20062;-55
2021/01/12 02:20:34;;;;;;;1.40;1.30;;;8.70;80.60;;;;;;5096899;28;20492;-53
2021/01/12 02:23:14;;;;;;;1.25;0.90;;;8.70;80.60;;;;;;5096009;28;20040;-54
2021/01/12 02:25:41;;;;;;;1.08;0.93;;;8.70;80.60;;;;;;5097025;28;20052;-54
2021/01/12 02:28:10;;;;;;;1.17;1.05;;;8.70;80.60;;;;;;5096391;28;20055;-52
2021/01/12 02:30:37;;;;;;;1.05;0.95;;;8.70;80.60;;;;;;5096402;28;20051;-53
2021/01/12 02:33:04;;;;;;;1.77;1.17;;;8.70;80.60;;;;;;5096645;28;20047;-54
2021/01/12 02:35:31;;;;;;;1.75;1.02;;;8.80;80.70;;;;;;5096217;28;20052;-51
2021/01/12 02:37:57;;;;;;;1.08;1.00;;;8.70;80.60;;;;;;5095936;28;20772;-49
2021/01/12 02:40:24;;;;;;;1.20;1.10;;;8.70;80.60;;;;;;5096774;28;20105;-53
2021/01/12 02:42:51;;;;;;;0.65;0.65;;;8.70;80.60;;;;;;5095897;28;20036;-53
2021/01/12 02:45:18;;;;;;;2.22;1.27;;;8.70;80.60;;;;;;5096243;28;20135;-55
2021/01/12 02:47:43;;;;;;;1.85;1.00;;;8.70;80.60;;;;;;5096247;28;20063;-54
2021/01/12 02:50:12;;;;;;;2.22;1.08;;;8.70;80.60;;;;;;5095828;28;20055;-54
2021/01/12 02:52:47;;;;;;;1.52;1.08;;;8.70;80.60;;;;;;5096087;28;20047;-51
2021/01/12 02:55:14;;;;;;;1.38;1.15;;;8.80;80.70;;;;;;5096240;28;20044;-51
2021/01/12 02:57:40;;;;;;;1.08;0.98;;;8.80;80.60;;;;;;5095948;28;20110;-54
2021/01/12 03:00:08;;;;;;;1.83;0.95;;;8.80;80.70;;;;;;5095841;28;20068;-48
2021/01/12 03:02:33;;;;;;;1.15;0.95;;;8.80;80.70;;;;;;5095975;28;20046;-53
2021/01/12 03:04:59;;;;;;;0.88;0.82;;;8.80;80.60;;;;;;5095852;28;20126;-53
2021/01/12 03:07:25;;;;;;;2.22;1.10;;;8.80;80.70;;;;;;5076986;28;20048;-52
2021/01/12 03:09:51;;;;;;;0.88;0.88;;;8.80;80.60;;;;;;5095484;28;20040;-53
2021/01/12 03:12:17;;;;;;;1.10;1.00;;;8.80;80.60;;;;;;5095763;28;20044;-54
2021/01/12 03:14:43;;;;;;;0.82;0.80;;;8.80;80.60;;;;;;5095793;28;20051;-53
2021/01/12 03:17:10;;;;;;;1.42;0.82;;;8.80;80.60;;;;;;5095381;28;20480;-53
2021/01/12 03:19:36;;;;;;;1.17;1.08;;;8.80;80.60;;;;;;5095624;28;20048;-53
2021/01/12 03:22:03;;;;;;;1.58;0.80;;;8.80;80.60;;;;;;5095289;28;20063;-54
2021/01/12 03:24:28;;;;;;;1.15;0.85;;;8.80;80.60;;;;;;5095907;28;20059;-52
2021/01/12 03:26:54;;;;;;;1.10;1.00;;;8.80;80.60;;;;;;5095304;28;20408;-53
2021/01/12 03:29:19;;;;;;;2.05;1.08;;;8.80;80.60;;;;;;5095217;28;20411;-53
2021/01/12 03:31:45;;;;;;;1.90;1.00;;;8.80;80.60;;;;;;5095108;28;20507;-54
2021/01/12 03:34:11;;;;;;;1.17;0.85;;;8.80;80.60;;;;;;5095091;28;20545;-48
2021/01/12 03:36:37;;;;;;;1.60;1.00;;;8.80;80.60;;;;;;5095114;28;20412;-53
2021/01/12 03:39:04;;;;;;;0.90;0.77;;;8.80;80.60;;;;;;5095268;28;20051;-51
2021/01/12 03:41:31;;;;;;;1.38;1.00;;;8.80;80.60;;;;;;5094621;28;20127;-52
2021/01/12 03:43:58;;;;;;;1.10;1.00;;;8.80;80.60;;;;;;5094724;28;20416;-53
2021/01/12 03:46:24;;;;;;;1.20;0.90;;;8.80;80.60;;;;;;5095213;28;20048;-53
2021/01/12 03:48:51;;;;;;;0.75;0.73;;;8.80;80.60;;;;;;5094963;28;20052;-53
2021/01/12 03:51:17;;;;;;;1.83;1.00;;;8.80;80.60;;;;;;5095102;28;20067;-54
2021/01/12 03:53:43;;;;;;;0.80;0.80;;;8.80;80.60;;;;;;5094725;28;20110;-51
2021/01/12 03:56:13;;;;;;;1.75;0.90;;;8.80;80.60;;;;;;5095118;28;20052;-52
2021/01/12 03:58:42;;;;;;;1.55;0.93;;;8.80;80.60;;;;;;5094676;28;20071;-54
2021/01/12 04:01:09;;;;;;;1.00;0.90;;;8.80;80.60;;;;;;5094595;28;20075;-53
2021/01/12 04:03:35;;;;;;;0.95;0.80;;;8.80;80.50;;;;;;5094380;28;20071;-50
2021/01/12 04:06:03;;;;;;;0.80;0.80;;;8.80;80.60;;;;;;5094794;28;20070;-54
2021/01/12 04:08:28;;;;;;;1.40;0.90;;;8.80;80.60;;;;;;5094439;28;20044;-53
2021/01/12 04:10:54;;;;;;;0.95;0.80;;;8.80;80.60;;;;;;5094750;28;20052;-54
2021/01/12 04:13:20;;;;;;;2.47;0.85;;;8.90;80.60;;;;;;5094322;28;20467;-49
2021/01/12 04:15:46;;;;;;;0.73;0.73;;;8.80;80.60;;;;;;5094473;28;20097;-54
2021/01/12 04:18:11;;;;;;;1.20;0.85;;;8.80;80.60;;;;;;5094335;28;20075;-53
2021/01/12 04:20:37;;;;;;;1.55;0.80;;;8.80;80.60;;;;;;5094500;28;20091;-53
2021/01/12 04:23:03;;;;;;;0.80;0.80;;;8.80;80.60;;;;;;5094519;28;20048;-51
2021/01/12 04:25:28;;;;;;;0.73;0.60;;;8.80;80.60;;;;;;5094309;28;20048;-53
2021/01/12 04:27:54;;;;;;;0.95;0.80;;;8.80;81.20;;;;;;5094253;28;20412;-54
2021/01/12 04:30:20;;;;;;;0.63;0.63;;;8.80;80.60;;;;;;5093664;28;20412;-54
2021/01/12 04:32:46;;;;;;;1.60;1.08;;;8.80;80.60;;;;;;5094136;28;20108;-56
2021/01/12 04:35:12;;;;;;;0.63;0.50;;;8.90;80.60;;;;;;5093994;28;20063;-53
2021/01/12 04:37:37;;;;;;;0.70;0.70;;;8.90;80.60;;;;;;5093830;28;20047;-54
2021/01/12 04:40:04;;;;;;;0.68;0.68;;;8.80;80.50;;;;;;5094239;28;20153;-55
2021/01/12 04:42:33;;;;;;;1.08;0.80;;;8.80;80.50;;;;;;5093940;28;20384;-53
2021/01/12 04:45:00;;;;;;;0.90;0.80;;;8.90;80.60;;;;;;5093674;28;20089;-53
2021/01/12 04:47:26;;;;;;;0.95;0.80;;;8.90;80.60;;;;;;5092434;28;20042;-54
2021/01/12 04:49:53;;;;;;;0.88;0.60;;;8.90;80.50;;;;;;5094169;28;20044;-54
2021/01/12 04:52:18;;;;;;;1.15;0.80;;;8.90;80.50;;;;;;5093701;28;20043;-54
2021/01/12 04:54:45;;;;;;;0.63;0.63;;;8.90;80.50;;;;;;5093956;28;20525;-54
2021/01/12 04:57:12;;;;;;;1.42;0.75;;;8.90;80.50;;;;;;5093597;28;20047;-54
2021/01/12 04:59:38;;;;;;;1.00;0.90;;;8.90;80.60;;;;;;5093797;28;20576;-53
2021/01/12 05:02:04;;;;;;;1.90;0.80;;;8.90;80.50;;;;;;5093193;28;20123;-54
2021/01/12 05:04:33;;;;;;;1.50;0.70;;;8.90;80.50;;;;;;5093785;28;20684;-53
2021/01/12 05:06:59;;;;;;;2.45;0.93;;;8.90;80.50;;;;;;5093007;28;20051;-51
2021/01/12 05:09:27;;;;;;;1.30;0.80;;;8.90;80.50;;;;;;5093356;28;20127;-54
2021/01/12 05:11:57;;;;;;;0.80;0.70;;;8.90;80.50;;;;;;5093597;28;20040;-54
2021/01/12 05:14:25;;;;;;;0.80;0.75;;;8.90;80.50;;;;;;5093503;28;20048;-53
2021/01/12 05:16:53;;;;;;;2.40;0.90;;;8.90;80.50;;;;;;5093012;28;20070;-54
2021/01/12 05:19:35;;;;;;;1.48;0.75;;;8.90;80.50;;;;;;5093433;28;20048;-54
2021/01/12 05:22:04;;;;;;;0.70;0.70;;;8.90;80.50;;;;;;5093115;28;20561;-49
2021/01/12 05:24:39;;;;;;;1.20;0.70;;;8.90;80.50;;;;;;5093468;28;20052;-54
2021/01/12 05:27:06;;;;;;;0.70;0.65;;;8.90;80.50;;;;;;5093226;28;20048;-54
2021/01/12 05:29:34;;;;;;;0.60;0.60;;;8.90;80.50;;;;;;5092941;28;20123;-54
2021/01/12 05:32:05;;;;;;;0.52;0.52;;;8.90;80.50;;;;;;5092623;28;20039;-51
2021/01/12 05:34:35;;;;;;;1.85;0.80;;;8.90;80.50;;;;;;5093191;28;20131;-54
2021/01/12 05:37:03;;;;;;;0.65;0.50;;;8.90;80.50;;;;;;5093241;28;20141;-54
2021/01/12 05:39:39;;;;;;;1.40;0.50;;;8.90;80.50;;;;;;5092658;28;20052;-53
2021/01/12 05:42:07;;;;;;;1.15;0.82;;;8.90;80.50;;;;;;5091653;28;20530;-53
2021/01/12 05:44:38;;;;;;;1.02;0.93;;;8.90;80.50;;;;;;5092935;28;20504;-53
2021/01/12 05:47:04;;;;;;;1.10;0.65;;;8.90;80.50;;;;;;5092584;28;20083;-53
2021/01/12 05:49:30;;;;;;;1.90;0.77;;;8.90;80.50;;;;;;5092860;28;20134;-51
2021/01/12 05:51:56;;;;;;;1.48;0.73;;;8.90;80.40;;;;;;5092816;28;20048;-54
2021/01/12 05:54:36;;;;;;;0.60;0.55;;;8.90;80.50;;;;;;5093162;28;20044;-55
2021/01/12 05:57:04;;;;;;;0.98;0.70;;;8.90;80.50;;;;;;5092833;28;20059;-54
2021/01/12 05:59:33;;;;;;;0.70;0.70;;;8.90;80.40;;;;;;5092373;28;20123;-54
2021/01/12 06:02:14;;;;;;;0.68;0.68;;;8.90;80.40;;;;;;5092984;28;20044;-53
2021/01/12 06:04:42;;;;;;;1.45;0.80;;;8.90;80.50;;;;;;5092706;28;20043;-52
2021/01/12 06:07:08;;;;;;;0.70;0.63;;;8.90;80.40;;;;;;5092447;28;20040;-51
2021/01/12 06:09:36;;;;;;;1.00;0.68;;;8.90;80.40;;;;;;5092822;28;20055;-53
2021/01/12 06:12:02;;;;;;;0.85;0.63;;;8.90;80.50;;;;;;5092204;28;20483;-54
2021/01/12 06:14:29;;;;;;;0.93;0.80;;;8.90;80.40;;;;;;5093075;28;20044;-49
2021/01/12 06:16:58;;;;;;;0.65;0.52;;;8.90;80.40;;;;;;5092431;28;20072;-53
2021/01/12 06:19:30;;;;;;;1.65;0.73;;;8.90;80.40;;;;;;5072680;28;20044;-52
2021/01/12 06:21:56;;;;;;;0.93;0.73;;;8.90;80.40;;;;;;5072519;28;20476;-52
2021/01/12 06:24:33;;;;;;;0.70;0.50;;;8.90;80.40;;;;;;5092317;28;20070;-54
2021/01/12 06:27:00;;;;;;;1.63;0.57;;;8.90;80.40;;;;;;5092385;28;20054;-50
2021/01/12 06:29:34;;;;;;;0.75;0.60;;;8.90;80.40;;;;;;5092938;28;20055;-53
2021/01/12 06:32:00;;;;;;;1.02;0.68;;;8.90;80.40;;;;;;5092171;28;20488;-50
2021/01/12 06:34:26;;;;;;;1.08;0.60;;;8.90;80.40;;;;;;5092557;28;20052;-51
2021/01/12 06:36:58;;;;;;;1.13;0.60;;;8.90;80.40;;;;;;5092434;28;20044;-49
2021/01/12 06:39:24;;;;;;;1.70;0.60;;;8.90;80.40;;;;;;5091679;28;20055;-53
2021/01/12 06:41:51;;;;;;;1.52;0.70;;;8.90;80.40;;;;;;5092559;28;20044;-53
2021/01/12 06:44:23;;;;;;;0.98;0.68;;;8.90;81.10;;;;;;5092333;28;20052;-54
2021/01/12 06:46:50;;;;;;;0.50;0.50;;;8.90;80.40;;;;;;5092660;28;20052;-53
2021/01/12 06:49:24;;;;;;;1.17;0.70;;;8.90;80.40;;;;;;5091419;28;20519;-52
2021/01/12 06:52:00;;;;;;;1.02;0.65;;;8.90;80.40;;;;;;5092165;28;20135;-54
2021/01/12 06:54:30;;;;;;;1.25;0.60;;;8.90;80.40;;;;;;5095351;28;20052;-55
2021/01/12 06:57:18;;;;;;;1.67;0.60;;;8.90;80.40;;;;;;5096109;28;20044;-53
2021/01/12 06:59:46;;;;;;;1.08;0.57;;;8.90;80.40;;;;;;5078145;28;20052;-54
2021/01/12 07:02:26;;;;;;;0.93;0.80;;;8.90;80.40;;;;;;5095664;28;20048;-53
2021/01/12 07:05:08;;;;;;;1.98;0.50;;;9.00;80.40;;;;;;5095881;28;20044;-53
2021/01/12 07:07:48;;;;;;;0.30;0.30;;;8.90;80.40;;;;;;5095628;28;20044;-49
2021/01/12 07:10:22;;;;;;;1.02;0.40;;;8.90;80.40;;;;;;5095994;28;20155;-52
2021/01/12 07:12:48;;;;;;;1.95;0.77;;;8.90;80.40;;;;;;5095705;28;20048;-51
2021/01/12 07:15:20;;;;;;;0.60;0.55;;;8.90;80.40;;;;;;5095812;28;20105;-53
2021/01/12 07:17:54;;;;;;;0.82;0.80;;;9.00;80.50;;;;;;5095800;28;20036;-55
2021/01/12 07:20:35;;;;;;;1.15;0.70;;;8.90;80.40;;;;;;5076458;28;20080;-54
2021/01/12 07:23:02;;;;;;;0.73;0.60;;;8.90;80.40;;;;;;5095473;28;20476;-54
2021/01/12 07:25:30;;;;;;;1.25;0.70;;;8.90;80.40;;;;;;5095640;28;20054;-54
2021/01/12 07:28:06;;;;;;;0.70;0.70;;;9.00;80.40;;;;;;5095561;28;20040;-52
2021/01/12 07:30:34;;;;;;;1.95;0.80;;;8.90;80.30;;;;;;5094942;28;20075;-54
2021/01/12 07:33:03;;;;;;;0.50;0.50;;;8.90;80.40;;;;;;5094947;28;20434;-49
2021/01/12 07:35:29;;;;;;;0.73;0.57;;;8.90;80.40;;;;;;5094935;28;20507;-55
2021/01/12 07:37:56;;;;;;;1.20;0.65;;;8.90;80.40;;;;;;5095018;28;20044;-51
2021/01/12 07:40:22;;;;;;;1.05;0.90;;;8.90;80.30;;;;;;5094434;28;20040;-49
2021/01/12 07:42:53;;;;;;;0.63;0.60;;;8.90;80.30;;;;;;5094598;28;20416;-55
2021/01/12 07:45:31;;;;;;;1.13;0.77;;;9.00;80.40;;;;;;5094039;28;20056;-53
2021/01/12 07:47:58;;;;;;;2.38;0.60;;;9.00;80.40;;;;;;5094150;28;20056;-54
2021/01/12 07:50:26;;;;;;;1.52;0.60;;;8.90;80.40;;;;;;5093715;28;20048;-51
2021/01/12 07:52:53;;;;;;;1.40;0.80;;;9.00;80.40;;;;;;5093538;28;20040;-54
2021/01/12 07:55:19;;;;;;;1.10;0.73;;;8.90;80.40;;;;;;5093996;28;20048;-53
2021/01/12 07:57:47;;;;;;;1.30;0.50;;;8.90;80.30;;;;;;5093888;28;20403;-53
2021/01/12 08:00:16;;;;;;;1.27;0.50;;;8.90;80.30;;;;;;5094501;28;20043;-55
2021/01/12 08:02:50;;;;;;;1.73;0.90;;;8.90;80.30;;;;;;5094969;28;20097;-51
2021/01/12 08:05:18;;;;;;;1.08;0.60;;;8.90;80.30;;;;;;5093703;28;20048;-54
2021/01/12 08:07:44;;;;;;;0.80;0.45;;;9.00;80.40;;;;;;5094899;28;20443;-54
2021/01/12 08:10:11;;;;;;;2.47;0.70;;;8.90;80.30;;;;;;5094691;28;20094;-54
2021/01/12 08:12:37;;;;;;;2.20;0.73;;;8.90;80.30;;;;;;5095037;28;20483;-54
2021/01/12 08:15:11;;;;;;;1.15;0.63;;;9.00;80.40;;;;;;5094951;28;20082;-54
2021/01/12 08:17:45;;;;;;;2.70;0.80;;;8.90;80.30;;;;;;5094708;28;20450;-54
2021/01/12 08:20:15;;;;;;;1.70;0.70;;;8.90;80.30;;;;;;5094028;28;20101;-53
2021/01/12 08:22:41;;;;;;;2.00;0.65;;;9.00;80.40;;;;;;5094619;28;20124;-55
2021/01/12 08:25:08;;;;;;;1.45;0.68;;;9.00;80.40;;;;;;5094734;28;20445;-55
2021/01/12 08:27:33;;;;;;;0.85;0.70;;;8.90;80.30;;;;;;5094544;28;20087;-55
2021/01/12 08:30:09;;;;;;;2.08;0.63;;;9.00;80.40;;;;;;5094542;28;20131;-54
2021/01/12 08:32:45;;;;;;;1.48;0.70;;;9.00;80.30;;;;;;5093126;28;20055;-54
2021/01/12 08:35:12;;;;;;;4.55;1.00;;;9.00;80.30;;;;;;5094233;28;20044;-54
2021/01/12 08:37:41;;;;;;;2.22;0.60;;;9.00;80.40;;;;;;5094369;28;20078;-54
2021/01/12 08:40:12;;;;;;;0.65;0.52;;;9.00;80.30;;;;;;5094166;28;20054;-54
2021/01/12 08:42:38;;;;;;;1.80;0.95;;;9.00;80.30;;;;;;5094091;28;20048;-49
2021/01/12 08:45:18;;;;;;;0.73;0.70;;;9.00;80.30;;;;;;5094050;28;20503;-54
2021/01/12 08:47:47;;;;;;;0.88;0.60;;;9.00;80.30;;;;;;5094350;28;20068;-54
2021/01/12 08:50:13;;;;;;;0.63;0.50;;;9.00;80.30;;;;;;5093789;28;20036;-54
2021/01/12 08:52:44;;;;;;;3.05;0.65;;;9.00;80.30;;;;;;5093916;28;20101;-54
2021/01/12 08:55:20;;;;;;;0.50;0.50;;;9.00;80.30;;;;;;5093721;28;20052;-54
2021/01/12 08:57:55;;;;;;;0.95;0.45;;;9.00;80.30;;;;;;5093820;28;20127;-54
2021/01/12 09:00:27;;;;;;;0.50;0.50;;;9.00;80.30;;;;;;5093822;28;20059;-50
2021/01/12 09:02:54;;;;;;;1.30;0.70;;;9.00;80.30;;;;;;5093555;28;20480;-54
2021/01/12 09:05:20;;;;;;;0.73;0.70;;;9.00;80.20;;;;;;5093659;28;20063;-51
2021/01/12 09:07:45;;;;;;;2.45;0.70;;;9.00;80.30;;;;;;5093738;28;20512;-51
2021/01/12 09:10:11;;;;;;;0.60;0.55;;;9.00;80.20;;;;;;5093619;28;20110;-54
2021/01/12 09:12:39;;;;;;;1.27;0.75;;;9.00;80.20;;;;;;5093773;28;20055;-54
2021/01/12 09:15:05;;;;;;;1.45;0.70;;;9.00;80.30;;;;;;5093917;28;20048;-55
2021/01/12 09:17:31;;;;;;;0.55;0.55;;;9.00;80.20;;;;;;5093658;28;20059;-54
2021/01/12 09:19:57;;;;;;;0.90;0.90;;;9.00;80.20;;;;;;5081754;28;20048;-54
2021/01/12 09:22:28;;;;;;;0.77;0.60;;;8.90;80.20;;;;;;5072826;28;20049;-53
2021/01/12 09:24:55;;;;;;;0.50;0.50;;;9.00;80.20;;;;;;5073189;28;20060;-54
2021/01/12 09:27:28;;;;;;;0.63;0.50;;;9.00;80.20;;;;;;5073299;28;20049;-55
2021/01/12 09:29:54;;;;;;;1.02;0.52;;;9.00;80.20;;;;;;5073276;28;20051;-52
2021/01/12 09:32:26;;;;;;;1.27;0.70;;;9.00;80.20;;;;;;5073052;28;20127;-54
2021/01/12 09:34:52;;;;;;;1.88;0.80;;;9.00;80.20;;;;;;5072944;28;20055;-48
2021/01/12 09:37:18;;;;;;;1.38;0.60;;;9.00;80.30;;;;;;5072503;28;20404;-53
2021/01/12 09:40:04;;;;;;;1.20;0.60;;;9.00;80.20;;;;;;5073003;28;20489;-54
2021/01/12 09:42:30;;;;;;;0.68;0.50;;;9.00;80.20;;;;;;5073165;28;20146;-52
2021/01/12 09:44:56;;;;;;;0.75;0.50;;;9.00;80.20;;;;;;5054263;28;20488;-55
2021/01/12 09:47:22;;;;;;;0.60;0.50;;;9.00;80.20;;;;;;5072909;28;20072;-54
2021/01/12 09:49:48;;;;;;;2.00;0.57;;;9.00;80.20;;;;;;5072716;28;20500;-49
2021/01/12 09:52:16;;;;;;;1.40;0.40;;;9.00;80.20;;;;;;5072541;28;20089;-54
2021/01/12 09:54:45;;;;;;;0.50;0.50;;;9.00;80.20;;;;;;5071017;28;20077;-46
2021/01/12 09:57:12;;;;;;;1.00;0.60;;;9.00;80.20;;;;;;5079525;28;20067;-49
2021/01/12 09:59:38;;;;;;;2.45;0.52;;;9.00;80.20;;;;;;5066932;28;20076;-52
2021/01/12 10:02:05;;;;;;;1.63;0.60;;;9.00;80.20;;;;;;5067693;28;20048;-52
2021/01/12 10:04:31;;;;;;;0.55;0.40;;;9.00;80.20;;;;;;5067052;28;20568;-48
2021/01/12 10:06:58;;;;;;;0.68;0.55;;;9.10;80.20;;;;;;5067111;28;20045;-48
2021/01/12 10:09:24;;;;;;;0.77;0.60;;;9.00;80.10;;;;;;5067318;28;20048;-52
2021/01/12 10:11:50;;;;;;;1.10;0.50;;;9.00;80.20;;;;;;5067156;28;20078;-50
2021/01/12 10:14:18;;;;;;;0.32;0.32;;;9.00;80.10;;;;;;5067112;28;20055;-49
2021/01/12 10:16:44;;;;;;;0.77;0.65;;;9.00;80.10;;;;;;5067090;28;20071;-52
2021/01/12 10:19:10;;;;;;;0.40;0.40;;;9.00;80.20;;;;;;5067107;28;20080;-48
2021/01/12 10:21:51;;;;;;;0.47;0.47;;;9.00;80.10;;;;;;5078865;28;20082;-48
2021/01/12 10:24:17;;;;;;;1.05;0.50;;;9.00;80.10;;;;;;5074424;28;20142;-48
2021/01/12 10:26:43;;;;;;;0.65;0.55;;;9.00;80.10;;;;;;5087421;28;20139;-49
2021/01/12 10:29:10;;;;;;;0.70;0.52;;;9.00;80.10;;;;;;5077335;28;20052;-47
2021/01/12 10:31:40;;;;;;;0.98;0.52;;;9.00;80.10;;;;;;5071031;28;20047;-50
2021/01/12 10:34:06;;;;;;;0.88;0.60;;;9.00;80.10;;;;;;5071282;28;20099;-47
2021/01/12 10:36:32;;;;;;;0.73;0.40;;;9.00;80.10;;;;;;5070203;28;20520;-53
2021/01/12 10:38:57;;;;;;;0.43;0.43;;;9.00;80.10;;;;;;5071053;28;20499;-48
2021/01/12 10:41:23;;;;;;;0.60;0.50;;;9.00;80.10;;;;;;5070736;28;20117;-48
2021/01/12 10:43:50;;;;;;;2.28;0.70;;;9.00;80.10;;;;;;5070896;28;20052;-50
2021/01/12 10:46:17;;;;;;;1.05;0.60;;;9.00;80.10;;;;;;5070839;28;20102;-46
2021/01/12 10:48:42;;;;;;;0.57;0.30;;;9.00;80.10;;;;;;5070302;28;20779;-49
2021/01/12 10:51:08;;;;;;;0.40;0.40;;;9.00;80.10;;;;;;5071025;28;20123;-51
2021/01/12 10:53:34;;;;;;;0.68;0.50;;;9.00;80.10;;;;;;5070127;28;20052;-49
2021/01/12 10:56:01;;;;;;;1.65;0.50;;;9.00;80.10;;;;;;5078202;28;20416;-50
2021/01/12 10:58:28;;;;;;;0.68;0.55;;;9.00;80.10;;;;;;5075245;28;20057;-53
2021/01/12 11:00:54;;;;;;;0.80;0.73;;;9.00;80.10;;;;;;5076873;28;20153;-49
2021/01/12 11:03:20;;;;;;;0.95;0.60;;;9.00;80.10;;;;;;5088970;28;20044;-49
2021/01/12 11:05:52;;;;;;;0.43;0.43;;;9.00;80.10;;;;;;5090369;28;20047;-49
2021/01/12 11:08:17;;;;;;;0.75;0.50;;;9.00;80.10;;;;;;5090221;28;20056;-49
2021/01/12 11:10:44;;;;;;;0.95;0.40;;;9.00;80.00;;;;;;5089892;28;20040;-49
2021/01/12 11:13:10;;;;;;;0.82;0.55;;;9.00;80.00;;;;;;5090986;28;20458;-52
2021/01/12 11:15:39;;;;;;;1.08;0.40;;;9.00;80.10;;;;;;5083777;28;20056;-51
2021/01/12 11:18:05;;;;;;;0.70;0.50;;;9.00;80.00;;;;;;5073425;28;20515;-51
2021/01/12 11:20:32;;;;;;;1.50;0.70;;;9.00;80.00;;;;;;5073134;28;20511;-51
2021/01/12 11:22:57;;;;;;;0.35;0.35;;;9.00;80.00;;;;;;5073299;28;20095;-50
2021/01/12 11:25:23;;;;;;;0.45;0.43;;;9.00;80.00;;;;;;5077185;28;20068;-52
2021/01/12 11:27:49;;;;;;;0.47;0.40;;;9.10;80.10;;;;;;5094467;28;20040;-48
2021/01/12 11:30:15;;;;;;;0.40;0.40;;;9.10;80.10;;;;;;5089948;28;20072;-50
2021/01/12 11:32:43;;;;;;;2.15;0.63;;;9.10;80.10;;;;;;5085244;28;20044;-50
2021/01/12 11:35:09;;;;;;;1.10;0.50;;;9.00;80.00;;;;;;5075249;28;20059;-53
2021/01/12 11:37:35;;;;;;;0.30;0.30;;;9.10;80.10;;;;;;5092255;28;20041;-51
2021/01/12 11:40:02;;;;;;;0.80;0.60;;;9.00;80.00;;;;;;5093889;28;20113;-53
2021/01/12 11:42:28;;;;;;;0.45;0.38;;;9.00;80.00;;;;;;5095409;28;20078;-54
2021/01/12 11:44:53;;;;;;;2.03;0.60;;;9.10;80.10;;;;;;5094915;28;20056;-54
2021/01/12 11:47:19;;;;;;;0.40;0.40;;;9.00;80.00;;;;;;5095335;28;20051;-53
2021/01/12 11:49:47;;;;;;;0.82;0.40;;;9.10;80.10;;;;;;5077849;28;20044;-47
2021/01/12 11:52:15;;;;;;;0.90;0.57;;;9.10;80.10;;;;;;5074894;28;20040;-50
2021/01/12 11:54:40;;;;;;;0.68;0.40;;;9.10;80.10;;;;;;5074598;28;20542;-54
2021/01/12 11:57:09;;;;;;;0.90;0.50;;;9.10;80.10;;;;;;5091780;28;20048;-54
2021/01/12 11:59:35;;;;;;;1.15;0.60;;;9.10;80.10;;;;;;5095181;28;20044;-51
2021/01/12 12:02:01;;;;;;;0.40;0.40;;;9.10;80.10;;;;;;5095244;28;20127;-55
2021/01/12 12:04:27;;;;;;;0.43;0.35;;;9.10;80.10;;;;;;5093997;28;20048;-56
2021/01/12 12:06:54;;;;;;;0.70;0.40;;;9.10;80.10;;;;;;5094618;28;20419;-54
2021/01/12 12:09:21;;;;;;;0.47;0.40;;;9.10;80.10;;;;;;5094669;28;20048;-54
2021/01/12 12:11:47;;;;;;;0.40;0.30;;;9.10;80.10;;;;;;5094798;28;20048;-54
2021/01/12 12:14:13;;;;;;;0.82;0.47;;;9.10;80.10;;;;;;5094773;28;20503;-55
2021/01/12 12:16:43;;;;;;;0.65;0.50;;;9.10;80.10;;;;;;5089890;28;20051;-51
2021/01/12 12:19:09;;;;;;;0.95;0.50;;;9.10;80.10;;;;;;5092285;28;20492;-52
2021/01/12 12:21:36;;;;;;;1.35;0.40;;;9.10;80.10;;;;;;5093976;28;20048;-51
2021/01/12 12:24:02;;;;;;;0.63;0.40;;;9.10;80.10;;;;;;5093925;28;20052;-55
2021/01/12 12:26:28;;;;;;;0.85;0.60;;;9.10;80.10;;;;;;5094425;28;20048;-51
2021/01/12 12:28:53;;;;;;;0.47;0.30;;;9.10;80.10;;;;;;5094271;28;20044;-55
2021/01/12 12:31:19;;;;;;;2.20;1.15;;;9.10;80.10;;;;;;5094384;28;20047;-54
2021/01/12 12:33:45;;;;;;;3.35;1.10;;;9.10;79.50;;;;;;5094362;28;20044;-51
2021/01/12 12:36:15;;;;;;;2.33;1.00;;;8.90;79.00;;;;;;5094449;28;20110;-48
2021/01/12 12:38:41;;;;;;;2.88;0.73;;;8.80;79.20;;;;;;5093655;28;20193;-49
2021/01/12 12:41:09;;;;;;;1.23;0.52;;;8.80;79.20;;;;;;5094059;28;20044;-51
2021/01/12 12:43:35;;;;;;;4.95;0.90;;;8.80;79.30;;;;;;5094081;28;20131;-50
2021/01/12 12:46:00;;;;;;;3.22;1.27;;;8.80;79.30;;;;;;5094310;28;20055;-50
2021/01/12 12:48:26;;;;;;;3.55;1.00;;;8.90;79.30;;;;;;5093819;28;20090;-50
2021/01/12 12:50:55;;;;;;;2.45;1.00;;;8.90;79.40;;;;;;5093459;28;20056;-50
2021/01/12 12:53:22;;;;;;;1.83;0.90;;;8.90;79.40;;;;;;5093808;28;20075;-50
2021/01/12 12:55:48;;;;;;;3.35;1.10;;;8.90;79.40;;;;;;5093984;28;20048;-50
2021/01/12 12:58:13;;;;;;;3.55;1.02;;;8.90;79.40;;;;;;5094031;28;20074;-48
2021/01/12 13:00:40;;;;;;;3.92;0.88;;;8.90;79.40;;;;;;5093674;28;20377;-48